sensor_id;sensor_type;location;lat;lon;timestamp;temperature;humidity
2112;DHT22;1062;52.538;13.400;2022-08-24T00:00:18;18.00;99.90
2112;DHT22;1062;52.538;13.400;2022-08-24T00:02:43;17.90;99.90
2112;DHT22;1062;52.538;13.400;2022-08-24T00:05:09;17.90;99.90
2112;DHT22;1062;52.538;13.400;2022-08-24T00:07:35;17.80;99.90
2112;DHT22;1062;52.538;13.400;2022-08-24T00:10:02;17.80;99.90
2112;DHT22;1062;52.538;13.400;2022-08-24T00:12:28;17.80;99.90
2112;DHT22;1062;52.538;13.400;2022-08-24T00:14:56;17.80;99.90
2112;DHT22;1062;52.538;13.400;2022-08-24T00:17:21;17.80;99.90
2112;DHT22;1062;52.538;13.400;2022-08-24T00:19:47;17.70;99.90
2112;DHT22;1062;52.538;13.400;2022-08-24T00:22:13;17.70;99.90
2112;DHT22;1062;52.538;13.400;2022-08-24T00:24:38;17.70;99.90
2112;DHT22;1062;52.538;13.400;2022-08-24T00:27:05;17.60;99.90
2112;DHT22;1062;52.538;13.400;2022-08-24T00:29:31;17.60;99.90
2112;DHT22;1062;52.538;13.400;2022-08-24T00:31:57;17.60;99.90
2112;DHT22;1062;52.538;13.400;2022-08-24T00:34:22;17.60;99.90
2112;DHT22;1062;52.538;13.400;2022-08-24T00:36:49;17.60;99.90
2112;DHT22;1062;52.538;13.400;2022-08-24T00:39:15;17.50;99.90
2112;DHT22;1062;52.538;13.400;2022-08-24T00:41:49;17.60;99.90
2112;DHT22;1062;52.538;13.400;2022-08-24T00:44:17;17.50;99.90
2112;DHT22;1062;52.538;13.400;2022-08-24T00:46:45;17.50;99.90
2112;DHT22;1062;52.538;13.400;2022-08-24T00:49:20;17.60;99.90
2112;DHT22;1062;52.538;13.400;2022-08-24T00:54:54;17.60;99.90
2112;DHT22;1062;52.538;13.400;2022-08-24T00:57:25;17.50;99.90
2112;DHT22;1062;52.538;13.400;2022-08-24T00:59:55;17.50;99.90
2112;DHT22;1062;52.538;13.400;2022-08-24T01:02:26;17.50;99.90
2112;DHT22;1062;52.538;13.400;2022-08-24T01:05:00;17.50;99.90
2112;DHT22;1062;52.538;13.400;2022-08-24T01:07:27;17.50;99.90
2112;DHT22;1062;52.538;13.400;2022-08-24T01:09:56;17.50;99.90
2112;DHT22;1062;52.538;13.400;2022-08-24T01:12:23;17.50;99.90
2112;DHT22;1062;52.538;13.400;2022-08-24T01:14:51;17.40;99.90
2112;DHT22;1062;52.538;13.400;2022-08-24T01:17:17;17.40;99.90
2112;DHT22;1062;52.538;13.400;2022-08-24T01:20:02;17.50;99.90
2112;DHT22;1062;52.538;13.400;2022-08-24T01:25:25;17.40;99.90
2112;DHT22;1062;52.538;13.400;2022-08-24T01:27:54;17.40;99.90
2112;DHT22;1062;52.538;13.400;2022-08-24T01:30:20;17.40;99.90
2112;DHT22;1062;52.538;13.400;2022-08-24T01:32:56;17.40;99.90
2112;DHT22;1062;52.538;13.400;2022-08-24T01:35:23;17.40;99.90
2112;DHT22;1062;52.538;13.400;2022-08-24T01:37:50;17.40;99.90
2112;DHT22;1062;52.538;13.400;2022-08-24T01:40:16;17.40;99.90
2112;DHT22;1062;52.538;13.400;2022-08-24T01:42:51;17.40;99.90
2112;DHT22;1062;52.538;13.400;2022-08-24T01:45:18;17.40;99.90
2112;DHT22;1062;52.538;13.400;2022-08-24T01:47:44;17.40;99.90
2112;DHT22;1062;52.538;13.400;2022-08-24T01:50:10;17.40;99.90
2112;DHT22;1062;52.538;13.400;2022-08-24T01:52:39;17.40;99.90
2112;DHT22;1062;52.538;13.400;2022-08-24T01:55:10;17.40;99.90
2112;DHT22;1062;52.538;13.400;2022-08-24T01:57:36;17.40;99.90
2112;DHT22;1062;52.538;13.400;2022-08-24T02:00:06;17.40;99.90
2112;DHT22;1062;52.538;13.400;2022-08-24T02:02:33;17.40;99.90
2112;DHT22;1062;52.538;13.400;2022-08-24T02:04:59;17.50;99.90
2112;DHT22;1062;52.538;13.400;2022-08-24T02:07:25;17.50;99.90
2112;DHT22;1062;52.538;13.400;2022-08-24T02:09:51;17.60;99.90
2112;DHT22;1062;52.538;13.400;2022-08-24T02:12:18;17.60;99.90
2112;DHT22;1062;52.538;13.400;2022-08-24T02:14:44;17.60;99.90
2112;DHT22;1062;52.538;13.400;2022-08-24T02:17:10;17.70;99.90
2112;DHT22;1062;52.538;13.400;2022-08-24T02:19:35;17.70;99.90
2112;DHT22;1062;52.538;13.400;2022-08-24T02:22:02;17.70;99.90
2112;DHT22;1062;52.538;13.400;2022-08-24T02:24:30;17.70;99.90
2112;DHT22;1062;52.538;13.400;2022-08-24T02:26:57;17.70;99.90
2112;DHT22;1062;52.538;13.400;2022-08-24T02:29:23;17.80;99.90
2112;DHT22;1062;52.538;13.400;2022-08-24T02:31:49;17.80;99.90
2112;DHT22;1062;52.538;13.400;2022-08-24T02:34:14;17.90;99.90
2112;DHT22;1062;52.538;13.400;2022-08-24T02:36:40;17.90;99.90
2112;DHT22;1062;52.538;13.400;2022-08-24T02:39:07;17.90;99.90
2112;DHT22;1062;52.538;13.400;2022-08-24T02:41:34;18.00;99.90
2112;DHT22;1062;52.538;13.400;2022-08-24T02:44:00;18.00;99.90
2112;DHT22;1062;52.538;13.400;2022-08-24T02:46:28;18.00;99.90
2112;DHT22;1062;52.538;13.400;2022-08-24T02:48:54;18.00;99.90
2112;DHT22;1062;52.538;13.400;2022-08-24T02:51:21;18.00;99.90
2112;DHT22;1062;52.538;13.400;2022-08-24T02:53:47;18.00;99.90
2112;DHT22;1062;52.538;13.400;2022-08-24T02:56:12;18.00;99.90
2112;DHT22;1062;52.538;13.400;2022-08-24T02:58:38;17.90;99.90
2112;DHT22;1062;52.538;13.400;2022-08-24T03:01:04;18.00;99.90
2112;DHT22;1062;52.538;13.400;2022-08-24T03:03:29;17.90;99.90
2112;DHT22;1062;52.538;13.400;2022-08-24T03:05:55;17.90;99.90
2112;DHT22;1062;52.538;13.400;2022-08-24T03:08:20;17.90;99.90
2112;DHT22;1062;52.538;13.400;2022-08-24T03:10:46;17.80;99.90
2112;DHT22;1062;52.538;13.400;2022-08-24T03:13:11;17.80;99.90
2112;DHT22;1062;52.538;13.400;2022-08-24T03:15:37;17.80;99.90
2112;DHT22;1062;52.538;13.400;2022-08-24T03:18:03;17.80;99.90
2112;DHT22;1062;52.538;13.400;2022-08-24T03:20:28;17.80;99.90
2112;DHT22;1062;52.538;13.400;2022-08-24T03:22:54;17.70;99.90
2112;DHT22;1062;52.538;13.400;2022-08-24T03:25:20;17.70;99.90
2112;DHT22;1062;52.538;13.400;2022-08-24T03:27:49;17.70;99.90
2112;DHT22;1062;52.538;13.400;2022-08-24T03:30:16;17.70;99.90
2112;DHT22;1062;52.538;13.400;2022-08-24T03:32:42;17.70;99.90
2112;DHT22;1062;52.538;13.400;2022-08-24T03:35:10;17.60;99.90
2112;DHT22;1062;52.538;13.400;2022-08-24T03:37:35;17.50;99.90
2112;DHT22;1062;52.538;13.400;2022-08-24T03:40:03;17.50;99.90
2112;DHT22;1062;52.538;13.400;2022-08-24T03:42:29;17.40;99.90
2112;DHT22;1062;52.538;13.400;2022-08-24T03:44:54;17.40;99.90
2112;DHT22;1062;52.538;13.400;2022-08-24T03:47:20;17.40;99.90
2112;DHT22;1062;52.538;13.400;2022-08-24T03:49:47;17.30;99.90
2112;DHT22;1062;52.538;13.400;2022-08-24T03:52:12;17.30;99.90
2112;DHT22;1062;52.538;13.400;2022-08-24T03:54:38;17.30;99.90
2112;DHT22;1062;52.538;13.400;2022-08-24T03:57:04;17.30;99.90
2112;DHT22;1062;52.538;13.400;2022-08-24T03:59:29;17.20;99.90
2112;DHT22;1062;52.538;13.400;2022-08-24T04:01:55;17.20;99.90
2112;DHT22;1062;52.538;13.400;2022-08-24T04:04:22;17.20;99.90
2112;DHT22;1062;52.538;13.400;2022-08-24T04:06:48;17.20;99.90
2112;DHT22;1062;52.538;13.400;2022-08-24T04:09:14;17.20;99.90
2112;DHT22;1062;52.538;13.400;2022-08-24T04:11:40;17.20;99.90
2112;DHT22;1062;52.538;13.400;2022-08-24T04:14:08;17.20;99.90
2112;DHT22;1062;52.538;13.400;2022-08-24T04:16:34;17.20;99.90
2112;DHT22;1062;52.538;13.400;2022-08-24T04:18:59;17.10;99.90
2112;DHT22;1062;52.538;13.400;2022-08-24T04:21:27;17.10;99.90
2112;DHT22;1062;52.538;13.400;2022-08-24T04:23:54;17.10;99.90
2112;DHT22;1062;52.538;13.400;2022-08-24T04:26:22;17.20;99.90
2112;DHT22;1062;52.538;13.400;2022-08-24T04:28:48;17.20;99.90
2112;DHT22;1062;52.538;13.400;2022-08-24T04:31:13;17.30;99.90
2112;DHT22;1062;52.538;13.400;2022-08-24T04:33:40;17.30;99.90
2112;DHT22;1062;52.538;13.400;2022-08-24T04:36:09;17.30;99.90
2112;DHT22;1062;52.538;13.400;2022-08-24T04:38:36;17.30;99.90
2112;DHT22;1062;52.538;13.400;2022-08-24T04:41:07;17.30;99.90
2112;DHT22;1062;52.538;13.400;2022-08-24T04:43:34;17.30;99.90
2112;DHT22;1062;52.538;13.400;2022-08-24T04:46:02;17.40;99.90
2112;DHT22;1062;52.538;13.400;2022-08-24T04:48:29;17.40;99.90
2112;DHT22;1062;52.538;13.400;2022-08-24T04:50:54;17.40;99.90
2112;DHT22;1062;52.538;13.400;2022-08-24T04:53:20;17.40;99.90
2112;DHT22;1062;52.538;13.400;2022-08-24T04:55:47;17.40;99.90
2112;DHT22;1062;52.538;13.400;2022-08-24T04:58:14;17.40;99.90
2112;DHT22;1062;52.538;13.400;2022-08-24T05:00:41;17.50;99.90
2112;DHT22;1062;52.538;13.400;2022-08-24T05:03:06;17.50;99.90
2112;DHT22;1062;52.538;13.400;2022-08-24T05:05:33;17.60;99.90
2112;DHT22;1062;52.538;13.400;2022-08-24T05:07:59;17.60;99.90
2112;DHT22;1062;52.538;13.400;2022-08-24T05:10:24;17.60;99.90
2112;DHT22;1062;52.538;13.400;2022-08-24T05:12:50;17.70;99.90
2112;DHT22;1062;52.538;13.400;2022-08-24T05:15:16;17.70;99.90
2112;DHT22;1062;52.538;13.400;2022-08-24T05:17:42;17.70;99.90
2112;DHT22;1062;52.538;13.400;2022-08-24T05:20:09;17.70;99.90
2112;DHT22;1062;52.538;13.400;2022-08-24T05:22:35;17.80;99.90
2112;DHT22;1062;52.538;13.400;2022-08-24T05:25:02;17.80;99.90
2112;DHT22;1062;52.538;13.400;2022-08-24T05:27:27;17.80;99.90
2112;DHT22;1062;52.538;13.400;2022-08-24T05:29:53;17.80;99.90
2112;DHT22;1062;52.538;13.400;2022-08-24T05:32:19;17.90;99.90
2112;DHT22;1062;52.538;13.400;2022-08-24T05:34:45;17.90;99.90
2112;DHT22;1062;52.538;13.400;2022-08-24T05:37:11;17.90;99.90
2112;DHT22;1062;52.538;13.400;2022-08-24T05:39:36;18.00;99.90
2112;DHT22;1062;52.538;13.400;2022-08-24T05:42:02;18.10;99.90
2112;DHT22;1062;52.538;13.400;2022-08-24T05:44:28;18.10;99.90
2112;DHT22;1062;52.538;13.400;2022-08-24T05:46:56;18.20;99.90
2112;DHT22;1062;52.538;13.400;2022-08-24T05:49:25;18.20;99.90
2112;DHT22;1062;52.538;13.400;2022-08-24T05:51:51;18.50;99.90
2112;DHT22;1062;52.538;13.400;2022-08-24T05:54:17;18.70;99.90
2112;DHT22;1062;52.538;13.400;2022-08-24T05:56:43;18.70;99.90
2112;DHT22;1062;52.538;13.400;2022-08-24T05:59:10;18.80;99.90
2112;DHT22;1062;52.538;13.400;2022-08-24T06:01:36;18.80;99.90
2112;DHT22;1062;52.538;13.400;2022-08-24T06:04:03;19.20;99.90
2112;DHT22;1062;52.538;13.400;2022-08-24T06:06:28;19.00;99.90
2112;DHT22;1062;52.538;13.400;2022-08-24T06:08:57;19.40;99.90
2112;DHT22;1062;52.538;13.400;2022-08-24T06:11:25;19.70;99.90
2112;DHT22;1062;52.538;13.400;2022-08-24T06:13:52;19.80;99.90
2112;DHT22;1062;52.538;13.400;2022-08-24T06:16:19;20.00;99.90
2112;DHT22;1062;52.538;13.400;2022-08-24T06:18:46;20.60;99.90
2112;DHT22;1062;52.538;13.400;2022-08-24T06:21:14;21.10;99.90
2112;DHT22;1062;52.538;13.400;2022-08-24T06:23:41;22.00;99.90
2112;DHT22;1062;52.538;13.400;2022-08-24T06:26:10;21.60;99.90
2112;DHT22;1062;52.538;13.400;2022-08-24T06:28:55;21.60;99.90
2112;DHT22;1062;52.538;13.400;2022-08-24T06:31:21;21.20;99.90
2112;DHT22;1062;52.538;13.400;2022-08-24T06:33:48;21.20;99.90
2112;DHT22;1062;52.538;13.400;2022-08-24T06:36:14;21.40;99.90
2112;DHT22;1062;52.538;13.400;2022-08-24T06:38:39;21.80;99.90
2112;DHT22;1062;52.538;13.400;2022-08-24T06:41:05;22.70;99.90
2112;DHT22;1062;52.538;13.400;2022-08-24T06:43:31;22.30;99.90
2112;DHT22;1062;52.538;13.400;2022-08-24T06:45:58;22.10;99.90
2112;DHT22;1062;52.538;13.400;2022-08-24T06:48:24;22.20;99.90
2112;DHT22;1062;52.538;13.400;2022-08-24T06:50:50;22.30;99.90
2112;DHT22;1062;52.538;13.400;2022-08-24T06:53:16;21.90;99.90
2112;DHT22;1062;52.538;13.400;2022-08-24T06:55:52;21.30;99.90
2112;DHT22;1062;52.538;13.400;2022-08-24T06:58:18;21.20;99.90
2112;DHT22;1062;52.538;13.400;2022-08-24T07:00:45;20.80;99.90
2112;DHT22;1062;52.538;13.400;2022-08-24T07:03:10;20.90;99.90
2112;DHT22;1062;52.538;13.400;2022-08-24T07:05:36;20.70;99.90
2112;DHT22;1062;52.538;13.400;2022-08-24T07:08:03;20.80;99.90
2112;DHT22;1062;52.538;13.400;2022-08-24T07:10:30;20.70;99.90
2112;DHT22;1062;52.538;13.400;2022-08-24T07:12:56;20.70;99.90
2112;DHT22;1062;52.538;13.400;2022-08-24T07:15:22;20.80;99.90
2112;DHT22;1062;52.538;13.400;2022-08-24T07:17:48;20.30;99.90
2112;DHT22;1062;52.538;13.400;2022-08-24T07:20:13;20.30;99.90
2112;DHT22;1062;52.538;13.400;2022-08-24T07:22:39;20.40;99.90
2112;DHT22;1062;52.538;13.400;2022-08-24T07:25:05;20.40;99.90
2112;DHT22;1062;52.538;13.400;2022-08-24T07:27:32;20.80;99.90
2112;DHT22;1062;52.538;13.400;2022-08-24T07:29:58;21.00;99.90
2112;DHT22;1062;52.538;13.400;2022-08-24T07:32:24;21.20;99.90
2112;DHT22;1062;52.538;13.400;2022-08-24T07:34:49;21.20;99.90
2112;DHT22;1062;52.538;13.400;2022-08-24T07:37:15;21.20;99.90
2112;DHT22;1062;52.538;13.400;2022-08-24T07:39:41;21.60;99.90
2112;DHT22;1062;52.538;13.400;2022-08-24T07:42:07;21.80;99.90
2112;DHT22;1062;52.538;13.400;2022-08-24T07:44:33;22.10;99.90
2112;DHT22;1062;52.538;13.400;2022-08-24T07:47:00;22.60;99.90
2112;DHT22;1062;52.538;13.400;2022-08-24T07:49:25;22.40;99.90
2112;DHT22;1062;52.538;13.400;2022-08-24T07:51:51;22.30;99.90
2112;DHT22;1062;52.538;13.400;2022-08-24T07:54:19;22.20;99.90
2112;DHT22;1062;52.538;13.400;2022-08-24T07:56:45;22.10;99.90
2112;DHT22;1062;52.538;13.400;2022-08-24T07:59:11;22.60;99.90
2112;DHT22;1062;52.538;13.400;2022-08-24T08:01:37;22.70;99.90
2112;DHT22;1062;52.538;13.400;2022-08-24T08:04:03;23.30;99.90
2112;DHT22;1062;52.538;13.400;2022-08-24T08:06:29;23.00;99.90
2112;DHT22;1062;52.538;13.400;2022-08-24T08:08:55;22.90;99.90
2112;DHT22;1062;52.538;13.400;2022-08-24T08:11:20;22.50;99.90
2112;DHT22;1062;52.538;13.400;2022-08-24T08:13:46;22.10;99.90
2112;DHT22;1062;52.538;13.400;2022-08-24T08:16:12;22.10;99.90
2112;DHT22;1062;52.538;13.400;2022-08-24T08:18:37;22.60;99.90
2112;DHT22;1062;52.538;13.400;2022-08-24T08:21:04;23.20;99.90
2112;DHT22;1062;52.538;13.400;2022-08-24T08:23:29;23.00;99.90
2112;DHT22;1062;52.538;13.400;2022-08-24T08:26:17;23.30;99.90
2112;DHT22;1062;52.538;13.400;2022-08-24T08:28:44;22.90;99.90
2112;DHT22;1062;52.538;13.400;2022-08-24T08:31:11;22.80;99.90
2112;DHT22;1062;52.538;13.400;2022-08-24T08:33:36;22.80;99.90
2112;DHT22;1062;52.538;13.400;2022-08-24T08:36:08;22.80;99.90
2112;DHT22;1062;52.538;13.400;2022-08-24T08:38:34;23.00;99.90
2112;DHT22;1062;52.538;13.400;2022-08-24T08:46:52;23.60;99.90
2112;DHT22;1062;52.538;13.400;2022-08-24T08:52:21;23.40;99.90
2112;DHT22;1062;52.538;13.400;2022-08-24T08:57:29;22.30;99.90
2112;DHT22;1062;52.538;13.400;2022-08-24T09:02:47;23.20;99.90
2112;DHT22;1062;52.538;13.400;2022-08-24T09:08:34;22.90;99.90
2112;DHT22;1062;52.538;13.400;2022-08-24T09:16:54;22.90;99.90
2112;DHT22;1062;52.538;13.400;2022-08-24T09:27:40;23.20;99.90
2112;DHT22;1062;52.538;13.400;2022-08-24T09:30:46;23.60;99.90
2112;DHT22;1062;52.538;13.400;2022-08-24T09:33:22;23.80;99.90
2112;DHT22;1062;52.538;13.400;2022-08-24T09:36:07;23.10;99.90
2112;DHT22;1062;52.538;13.400;2022-08-24T09:39:05;23.30;99.90
2112;DHT22;1062;52.538;13.400;2022-08-24T09:44:39;22.90;99.90
2112;DHT22;1062;52.538;13.400;2022-08-24T09:53:23;23.30;99.90
2112;DHT22;1062;52.538;13.400;2022-08-24T09:58:56;23.40;99.90
2112;DHT22;1062;52.538;13.400;2022-08-24T10:15:30;23.10;99.90
2112;DHT22;1062;52.538;13.400;2022-08-24T10:24:22;22.90;99.90
2112;DHT22;1062;52.538;13.400;2022-08-24T10:30:05;23.20;99.90
2112;DHT22;1062;52.538;13.400;2022-08-24T10:54:37;24.40;99.90
2112;DHT22;1062;52.538;13.400;2022-08-24T10:57:14;24.50;99.90
2112;DHT22;1062;52.538;13.400;2022-08-24T11:02:35;24.90;99.90
2112;DHT22;1062;52.538;13.400;2022-08-24T11:05:08;25.10;99.90
2112;DHT22;1062;52.538;13.400;2022-08-24T11:07:36;24.90;99.90
2112;DHT22;1062;52.538;13.400;2022-08-24T11:10:08;24.60;99.90
2112;DHT22;1062;52.538;13.400;2022-08-24T11:12:42;24.90;99.90
2112;DHT22;1062;52.538;13.400;2022-08-24T11:17:56;25.60;99.90
2112;DHT22;1062;52.538;13.400;2022-08-24T11:20:49;25.20;99.90
2112;DHT22;1062;52.538;13.400;2022-08-24T11:23:25;25.20;99.90
2112;DHT22;1062;52.538;13.400;2022-08-24T11:26:09;25.10;99.90
2112;DHT22;1062;52.538;13.400;2022-08-24T11:28:51;25.10;99.90
2112;DHT22;1062;52.538;13.400;2022-08-24T11:31:30;25.20;99.90
2112;DHT22;1062;52.538;13.400;2022-08-24T11:34:05;25.40;99.90
2112;DHT22;1062;52.538;13.400;2022-08-24T11:36:34;25.30;99.90
2112;DHT22;1062;52.538;13.400;2022-08-24T11:39:24;25.30;99.90
2112;DHT22;1062;52.538;13.400;2022-08-24T11:41:57;25.40;99.90
2112;DHT22;1062;52.538;13.400;2022-08-24T11:50:01;25.20;99.90
2112;DHT22;1062;52.538;13.400;2022-08-24T11:55:25;25.50;99.90
2112;DHT22;1062;52.538;13.400;2022-08-24T12:01:43;25.50;99.90
2112;DHT22;1062;52.538;13.400;2022-08-24T12:07:02;25.90;99.90
2112;DHT22;1062;52.538;13.400;2022-08-24T12:09:45;25.70;99.90
2112;DHT22;1062;52.538;13.400;2022-08-24T12:12:26;25.50;99.90
2112;DHT22;1062;52.538;13.400;2022-08-24T12:17:39;25.70;99.90
2112;DHT22;1062;52.538;13.400;2022-08-24T12:20:23;25.70;99.90
2112;DHT22;1062;52.538;13.400;2022-08-24T12:22:52;26.10;99.90
2112;DHT22;1062;52.538;13.400;2022-08-24T12:25:20;26.20;99.90
2112;DHT22;1062;52.538;13.400;2022-08-24T12:28:05;26.60;99.90
2112;DHT22;1062;52.538;13.400;2022-08-24T12:30:32;26.30;99.90
2112;DHT22;1062;52.538;13.400;2022-08-24T12:33:02;26.40;99.90
2112;DHT22;1062;52.538;13.400;2022-08-24T12:35:38;26.50;99.90
2112;DHT22;1062;52.538;13.400;2022-08-24T12:43:10;26.90;99.90
2112;DHT22;1062;52.538;13.400;2022-08-24T12:45:37;27.00;99.90
2112;DHT22;1062;52.538;13.400;2022-08-24T12:48:44;26.80;99.90
2112;DHT22;1062;52.538;13.400;2022-08-24T12:54:20;26.30;99.90
2112;DHT22;1062;52.538;13.400;2022-08-24T13:00:00;25.70;99.90
2112;DHT22;1062;52.538;13.400;2022-08-24T13:02:35;25.90;99.90
2112;DHT22;1062;52.538;13.400;2022-08-24T13:05:13;26.30;99.90
2112;DHT22;1062;52.538;13.400;2022-08-24T13:07:44;26.70;99.90
2112;DHT22;1062;52.538;13.400;2022-08-24T13:20:53;27.30;99.90
2112;DHT22;1062;52.538;13.400;2022-08-24T13:23:21;27.50;99.90
2112;DHT22;1062;52.538;13.400;2022-08-24T13:44:38;27.50;99.90
2112;DHT22;1062;52.538;13.400;2022-08-24T13:49:50;26.90;99.90
2112;DHT22;1062;52.538;13.400;2022-08-24T13:57:50;27.20;99.90
2112;DHT22;1062;52.538;13.400;2022-08-24T14:00:29;27.40;99.90
2112;DHT22;1062;52.538;13.400;2022-08-24T14:06:17;26.90;99.90
2112;DHT22;1062;52.538;13.400;2022-08-24T14:09:10;26.70;99.90
2112;DHT22;1062;52.538;13.400;2022-08-24T14:11:46;26.60;99.90
2112;DHT22;1062;52.538;13.400;2022-08-24T14:14:24;26.50;99.90
2112;DHT22;1062;52.538;13.400;2022-08-24T14:17:09;26.50;99.90
2112;DHT22;1062;52.538;13.400;2022-08-24T14:25:22;27.30;99.90
2112;DHT22;1062;52.538;13.400;2022-08-24T14:41:05;27.00;99.90
2112;DHT22;1062;52.538;13.400;2022-08-24T14:43:58;27.10;99.90
2112;DHT22;1062;52.538;13.400;2022-08-24T14:49:44;27.30;99.90
2112;DHT22;1062;52.538;13.400;2022-08-24T14:55:16;27.40;99.90
2112;DHT22;1062;52.538;13.400;2022-08-24T15:00:55;27.60;99.90
2112;DHT22;1062;52.538;13.400;2022-08-24T15:06:49;28.00;99.90
2112;DHT22;1062;52.538;13.400;2022-08-24T15:09:32;27.90;99.90
2112;DHT22;1062;52.538;13.400;2022-08-24T15:14:46;27.50;99.90
2112;DHT22;1062;52.538;13.400;2022-08-24T15:17:20;27.40;99.90
2112;DHT22;1062;52.538;13.400;2022-08-24T15:19:56;27.10;99.90
2112;DHT22;1062;52.538;13.400;2022-08-24T15:25:52;26.90;99.90
2112;DHT22;1062;52.538;13.400;2022-08-24T15:28:28;26.90;99.90
2112;DHT22;1062;52.538;13.400;2022-08-24T15:33:27;26.70;99.90
2112;DHT22;1062;52.538;13.400;2022-08-24T15:36:11;26.70;99.90
2112;DHT22;1062;52.538;13.400;2022-08-24T15:38:38;26.60;99.90
2112;DHT22;1062;52.538;13.400;2022-08-24T15:41:12;26.50;99.90
2112;DHT22;1062;52.538;13.400;2022-08-24T15:46:15;26.40;99.90
2112;DHT22;1062;52.538;13.400;2022-08-24T15:48:43;26.30;99.90
2112;DHT22;1062;52.538;13.400;2022-08-24T15:51:38;26.20;99.90
2112;DHT22;1062;52.538;13.400;2022-08-24T15:56:47;26.20;99.90
2112;DHT22;1062;52.538;13.400;2022-08-24T15:59:24;26.20;99.90
2112;DHT22;1062;52.538;13.400;2022-08-24T16:05:18;26.30;99.90
2112;DHT22;1062;52.538;13.400;2022-08-24T16:13:06;26.40;99.90
2112;DHT22;1062;52.538;13.400;2022-08-24T16:15:32;26.30;99.90
2112;DHT22;1062;52.538;13.400;2022-08-24T16:17:58;26.40;99.90
2112;DHT22;1062;52.538;13.400;2022-08-24T16:23:00;26.40;99.90
2112;DHT22;1062;52.538;13.400;2022-08-24T16:25:36;26.30;99.90
2112;DHT22;1062;52.538;13.400;2022-08-24T16:30:57;26.30;99.90
2112;DHT22;1062;52.538;13.400;2022-08-24T16:36:09;26.10;99.90
2112;DHT22;1062;52.538;13.400;2022-08-24T16:38:36;26.20;99.90
2112;DHT22;1062;52.538;13.400;2022-08-24T16:41:08;26.10;99.90
2112;DHT22;1062;52.538;13.400;2022-08-24T16:43:39;26.10;99.90
2112;DHT22;1062;52.538;13.400;2022-08-24T16:46:06;26.10;99.90
2112;DHT22;1062;52.538;13.400;2022-08-24T16:48:32;26.10;99.90
2112;DHT22;1062;52.538;13.400;2022-08-24T16:50:58;26.00;99.90
2112;DHT22;1062;52.538;13.400;2022-08-24T16:53:24;26.00;99.90
2112;DHT22;1062;52.538;13.400;2022-08-24T16:55:50;25.90;99.90
2112;DHT22;1062;52.538;13.400;2022-08-24T16:58:16;26.00;99.90
2112;DHT22;1062;52.538;13.400;2022-08-24T17:00:42;26.00;99.90
2112;DHT22;1062;52.538;13.400;2022-08-24T17:03:11;26.00;99.90
2112;DHT22;1062;52.538;13.400;2022-08-24T17:05:37;25.90;99.90
2112;DHT22;1062;52.538;13.400;2022-08-24T17:08:03;25.90;99.90
2112;DHT22;1062;52.538;13.400;2022-08-24T17:10:28;25.90;99.90
2112;DHT22;1062;52.538;13.400;2022-08-24T17:12:54;25.80;99.90
2112;DHT22;1062;52.538;13.400;2022-08-24T17:15:20;25.70;99.90
2112;DHT22;1062;52.538;13.400;2022-08-24T17:17:57;25.70;99.90
2112;DHT22;1062;52.538;13.400;2022-08-24T17:20:26;25.70;99.90
2112;DHT22;1062;52.538;13.400;2022-08-24T17:22:51;25.70;99.90
2112;DHT22;1062;52.538;13.400;2022-08-24T17:25:17;25.60;99.90
2112;DHT22;1062;52.538;13.400;2022-08-24T17:27:43;25.50;99.90
2112;DHT22;1062;52.538;13.400;2022-08-24T17:30:09;25.50;99.90
2112;DHT22;1062;52.538;13.400;2022-08-24T17:32:35;25.40;99.90
2112;DHT22;1062;52.538;13.400;2022-08-24T17:35:01;25.40;99.90
2112;DHT22;1062;52.538;13.400;2022-08-24T17:37:28;25.30;99.90
2112;DHT22;1062;52.538;13.400;2022-08-24T17:39:55;25.20;99.90
2112;DHT22;1062;52.538;13.400;2022-08-24T17:42:21;25.20;99.90
2112;DHT22;1062;52.538;13.400;2022-08-24T17:44:47;25.10;99.90
2112;DHT22;1062;52.538;13.400;2022-08-24T17:47:13;25.10;99.90
2112;DHT22;1062;52.538;13.400;2022-08-24T17:49:39;25.00;99.90
2112;DHT22;1062;52.538;13.400;2022-08-24T17:52:06;24.90;99.90
2112;DHT22;1062;52.538;13.400;2022-08-24T17:54:31;24.90;99.90
2112;DHT22;1062;52.538;13.400;2022-08-24T17:56:57;24.80;99.90
2112;DHT22;1062;52.538;13.400;2022-08-24T17:59:33;24.70;99.90
2112;DHT22;1062;52.538;13.400;2022-08-24T18:02:03;24.60;99.90
2112;DHT22;1062;52.538;13.400;2022-08-24T18:04:30;24.60;99.90
2112;DHT22;1062;52.538;13.400;2022-08-24T18:06:58;24.50;99.90
2112;DHT22;1062;52.538;13.400;2022-08-24T18:09:30;24.40;99.90
2112;DHT22;1062;52.538;13.400;2022-08-24T18:11:56;24.40;99.90
2112;DHT22;1062;52.538;13.400;2022-08-24T18:14:23;24.30;99.90
2112;DHT22;1062;52.538;13.400;2022-08-24T18:16:49;24.20;99.90
2112;DHT22;1062;52.538;13.400;2022-08-24T18:19:14;24.20;99.90
2112;DHT22;1062;52.538;13.400;2022-08-24T18:21:40;24.10;99.90
2112;DHT22;1062;52.538;13.400;2022-08-24T18:24:06;24.10;99.90
2112;DHT22;1062;52.538;13.400;2022-08-24T18:26:32;24.00;99.90
2112;DHT22;1062;52.538;13.400;2022-08-24T18:29:02;23.90;99.90
2112;DHT22;1062;52.538;13.400;2022-08-24T18:31:33;23.90;99.90
2112;DHT22;1062;52.538;13.400;2022-08-24T18:33:58;23.80;99.90
2112;DHT22;1062;52.538;13.400;2022-08-24T18:36:24;23.80;99.90
2112;DHT22;1062;52.538;13.400;2022-08-24T18:38:49;23.70;99.90
2112;DHT22;1062;52.538;13.400;2022-08-24T18:41:15;23.70;99.90
2112;DHT22;1062;52.538;13.400;2022-08-24T18:43:41;23.60;99.90
2112;DHT22;1062;52.538;13.400;2022-08-24T18:46:07;23.60;99.90
2112;DHT22;1062;52.538;13.400;2022-08-24T18:48:33;23.50;99.90
2112;DHT22;1062;52.538;13.400;2022-08-24T18:51:00;23.50;99.90
2112;DHT22;1062;52.538;13.400;2022-08-24T18:53:26;23.40;99.90
2112;DHT22;1062;52.538;13.400;2022-08-24T18:55:51;23.40;99.90
2112;DHT22;1062;52.538;13.400;2022-08-24T18:58:17;23.30;99.90
2112;DHT22;1062;52.538;13.400;2022-08-24T19:00:43;23.30;99.90
2112;DHT22;1062;52.538;13.400;2022-08-24T19:03:11;23.20;99.90
2112;DHT22;1062;52.538;13.400;2022-08-24T19:05:39;23.20;99.90
2112;DHT22;1062;52.538;13.400;2022-08-24T19:08:05;23.10;99.90
2112;DHT22;1062;52.538;13.400;2022-08-24T19:10:34;23.10;99.90
2112;DHT22;1062;52.538;13.400;2022-08-24T19:13:06;23.00;99.90
2112;DHT22;1062;52.538;13.400;2022-08-24T19:15:32;23.00;99.90
2112;DHT22;1062;52.538;13.400;2022-08-24T19:17:58;22.90;99.90
2112;DHT22;1062;52.538;13.400;2022-08-24T19:20:24;22.90;99.90
2112;DHT22;1062;52.538;13.400;2022-08-24T19:22:49;22.90;99.90
2112;DHT22;1062;52.538;13.400;2022-08-24T19:25:21;22.80;99.90
2112;DHT22;1062;52.538;13.400;2022-08-24T19:27:47;22.80;99.90
2112;DHT22;1062;52.538;13.400;2022-08-24T19:30:13;22.70;99.90
2112;DHT22;1062;52.538;13.400;2022-08-24T19:32:39;22.70;99.90
2112;DHT22;1062;52.538;13.400;2022-08-24T19:35:07;22.70;99.90
2112;DHT22;1062;52.538;13.400;2022-08-24T19:37:33;22.60;99.90
2112;DHT22;1062;52.538;13.400;2022-08-24T19:39:59;22.50;99.90
2112;DHT22;1062;52.538;13.400;2022-08-24T19:42:24;22.50;99.90
2112;DHT22;1062;52.538;13.400;2022-08-24T19:44:50;22.50;99.90
2112;DHT22;1062;52.538;13.400;2022-08-24T19:47:35;22.40;99.90